Time;durP1;ratioP1;P1;durP2;ratioP2;P2;SDS_P1;SDS_P2;PMS_P1;PMS_P2;Temp;Humidity;BMP_temperature;BMP_pressure;BME280_temperature;BME280_humidity;BME280_pressure;Samples;Min_cycle;Max_cycle;Signal;HPM_P1;HPM_P2
2022/09/06 00:00:13;;;;;;;5.40;3.37;;;;;;;6.28;98.40;100102.36;1724194;83;20987;-68
2022/09/06 00:02:40;;;;;;;3.95;2.80;;;;;;;6.26;98.42;100096.36;1724582;83;21015;-68
2022/09/06 00:05:08;;;;;;;5.72;3.70;;;;;;;6.23;98.42;100103.72;1724707;83;20971;-68
2022/09/06 00:07:35;;;;;;;7.15;3.75;;;;;;;6.21;98.54;100102.88;1724500;83;21146;-68
2022/09/06 00:10:01;;;;;;;4.70;3.37;;;;;;;6.20;98.66;100103.75;1724657;82;21569;-68
2022/09/06 00:12:29;;;;;;;6.37;4.17;;;;;;;6.19;98.65;100094.77;1724536;83;20999;-68
2022/09/06 00:14:55;;;;;;;5.12;3.75;;;;;;;6.17;98.63;100097.36;1724593;83;21014;-69
2022/09/06 00:17:23;;;;;;;5.08;3.45;;;;;;;6.15;98.65;100100.41;1724640;82;21066;-68
2022/09/06 00:19:49;;;;;;;8.73;4.10;;;;;;;6.13;98.64;100102.15;1704275;83;21428;-68
2022/09/06 00:22:16;;;;;;;6.47;3.98;;;;;;;6.12;98.49;100102.16;1724570;83;20990;-68
2022/09/06 00:24:42;;;;;;;7.90;4.62;;;;;;;6.06;98.46;100101.80;1724620;83;21067;-68
2022/09/06 00:27:09;;;;;;;15.65;4.37;;;;;;;6.04;98.46;100100.11;1724447;83;20964;-68
2022/09/06 00:29:35;;;;;;;6.75;4.50;;;;;;;6.01;98.50;100097.13;1724615;82;21066;-68
2022/09/06 00:32:02;;;;;;;6.75;4.55;;;;;;;6.00;98.42;100107.47;1724498;83;21188;-68
2022/09/06 00:34:29;;;;;;;9.35;5.65;;;;;;;5.98;98.39;100104.94;1724445;83;20939;-68
2022/09/06 00:36:55;;;;;;;5.95;4.75;;;;;;;5.96;98.40;100102.81;1724714;83;21455;-68
2022/09/06 00:39:22;;;;;;;7.62;4.20;;;;;;;5.94;98.50;100104.98;1704311;83;21055;-68
2022/09/06 00:41:49;;;;;;;6.92;4.42;;;;;;;5.92;98.51;100105.00;1724628;82;20960;-68
2022/09/06 00:44:15;;;;;;;5.92;3.87;;;;;;;5.90;98.56;100105.89;1724591;82;21549;-68
2022/09/06 00:46:45;;;;;;;4.95;3.52;;;;;;;5.89;98.53;100112.78;1724503;83;21058;-68
2022/09/06 00:49:23;;;;;;;6.35;3.47;;;;;;;5.86;98.50;100108.91;1729075;82;20959;-68
2022/09/06 00:52:04;;;;;;;5.10;3.67;;;;;;;5.84;98.59;100106.34;1724539;83;21511;-67
2022/09/06 00:54:30;;;;;;;7.17;4.15;;;;;;;5.82;98.64;100111.96;1715201;82;20947;-68
2022/09/06 00:56:57;;;;;;;7.53;4.10;;;;;;;5.80;98.67;100108.53;1729425;83;21988;-68
2022/09/06 00:59:27;;;;;;;8.60;3.85;;;;;;;5.79;98.56;100109.88;1729362;82;21011;-68
2022/09/06 01:01:53;;;;;;;4.75;3.50;;;;;;;5.77;98.46;100113.77;1728972;82;21047;-68
2022/09/06 01:04:20;;;;;;;8.00;4.62;;;;;;;5.74;98.16;100114.23;1729532;82;21011;-68
2022/09/06 01:07:11;;;;;;;7.17;4.50;;;;;;;5.69;97.96;100112.13;1729420;82;20976;-68
2022/09/06 01:10:02;;;;;;;6.90;4.40;;;;;;;5.65;97.78;100115.17;1729565;82;21121;-68
2022/09/06 01:13:01;;;;;;;5.97;4.00;;;;;;;5.59;97.55;100116.99;1729548;83;21007;-68
2022/09/06 01:15:52;;;;;;;5.35;3.92;;;;;;;5.52;97.47;100114.47;1729648;82;21105;-68
2022/09/06 01:18:24;;;;;;;5.58;3.95;;;;;;;5.47;97.38;100113.66;1729472;83;20975;-68
2022/09/06 01:21:21;;;;;;;6.95;3.90;;;;;;;5.42;97.46;100116.70;1729715;83;20943;-68
2022/09/06 01:24:18;;;;;;;5.70;3.90;;;;;;;5.38;97.70;100112.48;1704362;84;21233;-68
2022/09/06 01:27:30;;;;;;;5.25;3.45;;;;;;;5.32;97.79;100120.27;1695587;82;21011;-68
2022/09/06 01:30:10;;;;;;;5.55;3.72;;;;;;;5.27;98.46;100129.77;1729659;82;20999;-68
2022/09/06 01:33:00;;;;;;;5.58;3.58;;;;;;;5.25;99.02;100124.20;1729678;82;20959;-68
2022/09/06 01:35:41;;;;;;;4.37;3.20;;;;;;;5.23;99.67;100116.47;1713262;83;21458;-68
2022/09/06 01:38:08;;;;;;;5.15;3.55;;;;;;;5.22;100.00;100114.77;1725286;82;21400;-68
2022/09/06 01:40:35;;;;;;;5.87;3.80;;;;;;;5.21;100.00;100122.08;1729502;82;21120;-68
2022/09/06 01:43:05;;;;;;;6.05;3.77;;;;;;;5.20;100.00;100118.64;1730044;82;21045;-67
2022/09/06 01:45:50;;;;;;;4.12;3.20;;;;;;;5.20;100.00;100115.20;1729671;83;21502;-67
2022/09/06 01:48:28;;;;;;;8.15;4.25;;;;;;;5.19;100.00;100122.12;1729665;83;21007;-68
2022/09/06 01:51:10;;;;;;;8.70;4.97;;;;;;;5.20;100.00;100117.78;1726633;83;21252;-68
2022/09/06 01:53:58;;;;;;;10.35;5.55;;;;;;;5.19;100.00;100119.97;1710476;82;21097;-68
2022/09/06 01:57:18;;;;;;;7.55;4.85;;;;;;;5.18;100.00;100115.69;1725191;82;21043;-68
2022/09/06 02:00:08;;;;;;;8.15;4.28;;;;;;;5.16;100.00;100120.85;1724652;83;21054;-68
2022/09/06 02:02:46;;;;;;;6.42;4.42;;;;;;;5.11;100.00;100118.75;1733467;82;20968;-68
2022/09/06 02:05:37;;;;;;;8.48;4.40;;;;;;;5.06;100.00;100127.38;1724868;82;21934;-68
2022/09/06 02:08:24;;;;;;;6.92;4.30;;;;;;;5.02;100.00;100126.98;1724717;83;21003;-68
2022/09/06 02:11:03;;;;;;;8.15;4.65;;;;;;;5.02;100.00;100132.13;1714003;82;20972;-68
2022/09/06 02:13:43;;;;;;;4.45;3.52;;;;;;;5.01;100.00;100133.00;1724643;83;20976;-68
2022/09/06 02:16:11;;;;;;;5.55;3.27;;;;;;;5.01;100.00;100133.86;1724344;83;20964;-68
2022/09/06 02:18:44;;;;;;;5.60;3.12;;;;;;;5.01;100.00;100135.58;1724605;83;22126;-68
2022/09/06 02:21:13;;;;;;;5.87;3.70;;;;;;;5.00;100.00;100132.14;1706467;82;20960;-68
2022/09/06 02:23:41;;;;;;;7.95;3.70;;;;;;;5.00;100.00;100135.16;1734870;82;20971;-68
2022/09/06 02:26:17;;;;;;;5.65;3.25;;;;;;;4.97;100.00;100133.92;1731202;82;21177;-68
2022/09/06 02:28:44;;;;;;;5.35;3.70;;;;;;;4.95;100.00;100139.08;1724633;83;21018;-68
2022/09/06 02:31:16;;;;;;;5.35;2.85;;;;;;;4.89;100.00;100139.13;1724706;83;21102;-68
2022/09/06 02:33:43;;;;;;;5.97;3.27;;;;;;;4.87;100.00;100135.70;1723923;83;21002;-69
2022/09/06 02:36:10;;;;;;;6.78;3.55;;;;;;;4.86;100.00;100140.43;1724689;82;21003;-68
2022/09/06 02:38:39;;;;;;;5.65;3.47;;;;;;;4.84;100.00;100136.57;1724777;82;21452;-68
2022/09/06 02:41:06;;;;;;;11.85;3.52;;;;;;;4.84;100.00;100143.45;1724649;82;20964;-68
2022/09/06 02:43:33;;;;;;;5.78;3.60;;;;;;;4.84;100.00;100138.30;1681885;82;21502;-68
2022/09/06 02:45:59;;;;;;;6.22;3.72;;;;;;;4.82;100.00;100142.17;1724640;83;20964;-68
2022/09/06 02:48:26;;;;;;;5.67;3.58;;;;;;;4.80;100.00;100138.75;1724567;83;21039;-68
2022/09/06 02:50:52;;;;;;;7.33;4.00;;;;;;;4.81;100.00;100146.05;1724682;83;21030;-68
2022/09/06 02:53:19;;;;;;;5.60;4.05;;;;;;;4.81;100.00;100144.33;1724684;83;20995;-68
2022/09/06 02:55:47;;;;;;;7.78;3.98;;;;;;;4.81;100.00;100144.33;1724473;82;22046;-68
2022/09/06 02:58:16;;;;;;;8.75;3.77;;;;;;;4.81;100.00;100152.48;1724614;83;20991;-68
2022/09/06 03:00:42;;;;;;;6.12;4.15;;;;;;;4.79;100.00;100152.96;1724585;83;21090;-68
2022/09/06 03:03:09;;;;;;;8.55;5.15;;;;;;;4.77;100.00;100150.39;1724578;83;20960;-68
2022/09/06 03:05:36;;;;;;;7.97;4.65;;;;;;;4.75;100.00;100151.27;1724689;83;21059;-68
2022/09/06 03:08:02;;;;;;;8.85;5.20;;;;;;;4.72;100.00;100147.42;1724622;83;21086;-68
2022/09/06 03:10:29;;;;;;;10.50;5.30;;;;;;;4.73;100.00;100155.14;1724521;82;21456;-68
2022/09/06 03:12:56;;;;;;;9.78;5.60;;;;;;;4.73;100.00;100149.98;1724687;83;21054;-68
2022/09/06 03:15:23;;;;;;;8.13;4.78;;;;;;;4.73;100.00;100153.85;1724658;83;20994;-68
2022/09/06 03:17:49;;;;;;;6.55;4.55;;;;;;;4.74;100.00;100152.98;1724714;82;20987;-68
2022/09/06 03:20:16;;;;;;;6.58;4.83;;;;;;;4.73;100.00;100153.00;1724546;82;21147;-68
2022/09/06 03:22:43;;;;;;;7.55;4.75;;;;;;;4.72;100.00;100151.28;1724609;83;21007;-68
2022/09/06 03:25:10;;;;;;;6.92;5.45;;;;;;;4.72;100.00;100156.44;1724562;82;20996;-68
2022/09/06 03:27:37;;;;;;;8.70;5.03;;;;;;;4.73;100.00;100150.42;1724457;83;21007;-68
2022/09/06 03:30:06;;;;;;;10.18;5.30;;;;;;;4.75;100.00;100158.56;1724577;82;21066;-68
2022/09/06 03:32:32;;;;;;;9.80;5.87;;;;;;;4.78;100.00;100163.70;1724624;83;21769;-68
2022/09/06 03:34:59;;;;;;;12.25;6.78;;;;;;;4.82;100.00;100167.94;1724466;83;20945;-68
2022/09/06 03:37:26;;;;;;;10.45;6.22;;;;;;;4.89;100.00;100164.05;1724654;83;21015;-69
2022/09/06 03:39:53;;;;;;;9.45;6.10;;;;;;;5.00;100.00;100161.79;1701369;83;21026;-69
2022/09/06 03:42:20;;;;;;;18.17;6.47;;;;;;;5.15;100.00;100165.56;1710145;83;20952;-69
2022/09/06 03:44:47;;;;;;;16.62;6.83;;;;;;;5.36;100.00;100163.22;1724692;83;21154;-69
2022/09/06 03:47:14;;;;;;;26.65;8.08;;;;;;;5.62;100.00;100165.96;1724435;82;21051;-69
2022/09/06 03:49:41;;;;;;;15.65;6.67;;;;;;;5.83;100.00;100170.46;1704104;83;21012;-69
2022/09/06 03:52:07;;;;;;;12.25;5.33;;;;;;;6.07;100.00;100173.67;1724553;83;21437;-69
2022/09/06 03:54:34;;;;;;;18.12;6.55;;;;;;;6.27;100.00;100170.41;1725815;82;20986;-69
2022/09/06 03:57:01;;;;;;;10.88;6.22;;;;;;;6.49;100.00;100168.39;1729431;82;21145;-69
2022/09/06 03:59:28;;;;;;;17.87;7.03;;;;;;;6.71;100.00;100167.22;1729498;82;20951;-69
2022/09/06 04:01:55;;;;;;;13.93;6.60;;;;;;;6.87;99.69;100162.23;1729527;82;21049;-69
2022/09/06 04:04:21;;;;;;;17.75;7.90;;;;;;;7.04;99.49;100164.98;1729569;83;20972;-69
2022/09/06 04:06:48;;;;;;;15.72;7.30;;;;;;;7.18;99.51;100168.22;1729558;83;20967;-69
2022/09/06 04:09:15;;;;;;;19.45;8.93;;;;;;;7.33;99.39;100172.27;1729584;83;21546;-69
2022/09/06 04:11:41;;;;;;;13.85;7.17;;;;;;;7.52;99.21;100173.66;1729393;82;20944;-69
2022/09/06 04:14:08;;;;;;;16.30;5.85;;;;;;;7.76;98.80;100169.33;1729556;83;20960;-69
2022/09/06 04:16:35;;;;;;;8.90;5.35;;;;;;;8.08;98.02;100165.25;1729489;82;21550;-69
2022/09/06 04:19:03;;;;;;;11.00;7.45;;;;;;;8.33;96.38;100163.89;1729545;82;20967;-69
2022/09/06 04:21:30;;;;;;;16.27;7.83;;;;;;;8.44;94.93;100167.54;1729456;82;21947;-69
2022/09/06 04:23:57;;;;;;;10.00;7.30;;;;;;;8.46;94.13;100170.51;1729461;82;20955;-69
2022/09/06 04:26:23;;;;;;;13.62;7.35;;;;;;;8.42;93.55;100163.68;1740215;81;21006;-69
2022/09/06 04:28:50;;;;;;;11.57;7.60;;;;;;;8.40;92.92;100164.59;1736444;82;20960;-69
2022/09/06 04:31:16;;;;;;;16.00;8.13;;;;;;;8.35;92.33;100181.56;1729516;83;20968;-69
2022/09/06 04:33:43;;;;;;;14.55;9.00;;;;;;;8.30;92.40;100175.59;1729433;82;21240;-69
2022/09/06 04:36:10;;;;;;;16.27;9.85;;;;;;;8.29;92.03;100166.10;1729443;83;21396;-69
2022/09/06 04:38:40;;;;;;;14.83;9.05;;;;;;;8.34;91.96;100167.34;1729549;82;20960;-69
2022/09/06 04:41:12;;;;;;;14.93;8.48;;;;;;;8.39;91.71;100171.55;1729527;83;20995;-69
2022/09/06 04:43:39;;;;;;;16.77;8.65;;;;;;;8.43;90.65;100171.02;1729567;82;20968;-68
2022/09/06 04:46:24;;;;;;;12.70;7.80;;;;;;;8.45;90.32;100175.73;1729500;83;21214;-68
2022/09/06 04:48:52;;;;;;;12.80;8.78;;;;;;;8.44;89.59;100177.91;1729351;83;20955;-68
2022/09/06 04:51:19;;;;;;;12.28;7.45;;;;;;;8.45;89.24;100176.58;1729412;82;20967;-68
2022/09/06 04:53:46;;;;;;;12.25;7.28;;;;;;;8.50;89.15;100169.56;1729630;82;20992;-68
2022/09/06 04:56:20;;;;;;;11.22;7.78;;;;;;;8.56;88.53;100179.81;1733206;82;21062;-67
2022/09/06 04:58:48;;;;;;;17.07;8.15;;;;;;;8.58;88.20;100182.38;1729447;83;21142;-68
2022/09/06 05:01:15;;;;;;;14.63;10.13;;;;;;;8.62;88.37;100183.98;1729383;82;21011;-68
2022/09/06 05:03:42;;;;;;;15.23;9.65;;;;;;;8.67;87.84;100192.52;1729384;83;21019;-68
2022/09/06 05:06:20;;;;;;;13.53;9.40;;;;;;;8.68;87.12;100190.34;1729450;82;20956;-68
2022/09/06 05:08:47;;;;;;;16.40;9.78;;;;;;;8.72;86.74;100193.28;1732248;82;20991;-68
2022/09/06 05:11:14;;;;;;;12.93;8.65;;;;;;;8.73;86.06;100187.66;1729451;82;21197;-68
2022/09/06 05:13:41;;;;;;;10.72;7.70;;;;;;;8.77;85.95;100193.19;1729179;83;20951;-69
2022/09/06 05:16:08;;;;;;;13.03;8.33;;;;;;;8.82;85.04;100197.36;1729779;83;21483;-68
2022/09/06 05:18:35;;;;;;;12.15;7.90;;;;;;;8.81;84.62;100194.36;1714383;82;21062;-68
2022/09/06 05:21:02;;;;;;;20.05;7.72;;;;;;;8.80;84.47;100193.09;1724776;83;20959;-68
2022/09/06 05:23:29;;;;;;;13.38;8.05;;;;;;;8.84;84.66;100191.70;1724748;82;21058;-68
2022/09/06 05:25:57;;;;;;;10.90;7.33;;;;;;;8.92;84.56;100194.98;1687175;83;20976;-68
2022/09/06 05:28:25;;;;;;;11.63;7.45;;;;;;;8.94;84.67;100188.46;1724499;82;21015;-68
2022/09/06 05:30:51;;;;;;;9.50;6.37;;;;;;;8.96;84.83;100191.88;1724938;82;20968;-68
2022/09/06 05:33:21;;;;;;;12.80;6.78;;;;;;;9.03;84.41;100196.45;1723863;82;21026;-69
2022/09/06 05:35:49;;;;;;;15.85;7.53;;;;;;;9.05;83.93;100205.06;1724786;82;21146;-70
2022/09/06 05:38:16;;;;;;;12.90;7.80;;;;;;;9.08;84.27;100198.06;1724603;82;21047;-70
2022/09/06 05:40:42;;;;;;;14.35;8.13;;;;;;;9.16;84.55;100198.74;1725080;82;21046;-68
2022/09/06 05:43:10;;;;;;;12.95;7.80;;;;;;;9.27;84.56;100199.32;1725128;82;21436;-68
2022/09/06 05:45:37;;;;;;;11.48;6.87;;;;;;;9.34;84.21;100198.73;1725576;82;20995;-68
2022/09/06 05:48:04;;;;;;;11.22;8.20;;;;;;;9.37;84.21;100193.47;1724921;83;21243;-68
2022/09/06 05:50:31;;;;;;;10.68;6.75;;;;;;;9.41;83.29;100205.46;1724763;82;21007;-69
2022/09/06 05:53:00;;;;;;;12.93;6.20;;;;;;;9.43;82.61;100211.91;1724890;82;20967;-68
2022/09/06 05:55:28;;;;;;;10.78;6.83;;;;;;;9.44;82.13;100199.34;1724480;82;44681;-68
2022/09/06 05:57:55;;;;;;;10.55;6.58;;;;;;;9.52;81.55;100213.84;1724533;82;21054;-68
2022/09/06 06:00:22;;;;;;;12.28;6.83;;;;;;;9.57;81.34;100206.80;1724432;82;21308;-68
2022/09/06 06:02:51;;;;;;;9.50;6.33;;;;;;;9.64;80.74;100205.73;1723413;82;20940;-69
2022/09/06 06:05:19;;;;;;;11.73;6.50;;;;;;;9.73;79.99;100207.70;1725137;82;20943;-69
2022/09/06 06:07:47;;;;;;;8.65;5.72;;;;;;;9.80;79.32;100205.32;1724699;82;21055;-69
2022/09/06 06:10:14;;;;;;;10.72;5.42;;;;;;;9.85;78.83;100200.86;1705081;83;21487;-69
2022/09/06 06:12:41;;;;;;;11.15;5.47;;;;;;;9.93;78.57;100197.63;1724806;82;21165;-68
2022/09/06 06:15:10;;;;;;;12.18;5.83;;;;;;;10.05;78.34;100202.92;1724455;82;20948;-70
2022/09/06 06:17:36;;;;;;;9.30;5.80;;;;;;;10.12;77.50;100200.57;1723274;82;21085;-70
2022/09/06 06:20:04;;;;;;;8.53;6.33;;;;;;;10.18;77.37;100203.00;1722361;82;21052;-69
2022/09/06 06:22:32;;;;;;;8.65;5.78;;;;;;;10.27;77.58;100201.02;1722919;82;21038;-69
2022/09/06 06:25:00;;;;;;;9.73;5.42;;;;;;;10.43;77.12;100209.66;1681470;82;22160;-69
2022/09/06 06:27:27;;;;;;;7.78;5.40;;;;;;;10.54;76.84;100218.02;1650364;85;21005;-69
2022/09/06 06:29:54;;;;;;;5.47;4.50;;;;;;;10.60;76.85;100216.07;1656840;83;21033;-70
2022/09/06 06:32:21;;;;;;;9.73;6.47;;;;;;;10.69;76.75;100222.31;1660590;85;21586;-69
2022/09/06 06:34:49;;;;;;;8.23;5.25;;;;;;;10.77;76.24;100221.25;1619394;87;21106;-69
2022/09/06 06:37:16;;;;;;;10.30;5.17;;;;;;;10.85;76.32;100227.05;1642669;86;21222;-69
2022/09/06 06:39:45;;;;;;;6.22;5.05;;;;;;;10.94;75.75;100217.22;1621075;86;21076;-70
2022/09/06 06:42:14;;;;;;;7.87;5.10;;;;;;;10.98;75.34;100231.00;1623389;85;21942;-71
2022/09/06 06:44:42;;;;;;;12.10;5.00;;;;;;;11.02;75.53;100230.83;1685757;84;21098;-69
2022/09/06 06:47:09;;;;;;;10.48;4.12;;;;;;;11.11;75.66;100228.86;1657904;86;21036;-69
2022/09/06 06:49:36;;;;;;;9.43;4.40;;;;;;;11.26;74.96;100227.05;1697863;83;21244;-70
2022/09/06 06:52:04;;;;;;;8.50;4.30;;;;;;;11.43;73.80;100220.84;1664336;86;20977;-70
2022/09/06 06:54:31;;;;;;;11.08;4.95;;;;;;;11.58;73.07;100227.32;1697964;84;21108;-70
2022/09/06 06:57:01;;;;;;;9.53;4.60;;;;;;;11.74;71.72;100216.78;1687696;84;21049;-70
2022/09/06 06:59:27;;;;;;;13.83;4.35;;;;;;;11.90;70.26;100223.64;1747526;81;21032;-68
2022/09/06 07:01:54;;;;;;;11.85;4.97;;;;;;;12.00;68.62;100225.00;1743405;82;21437;-70
2022/09/06 07:04:22;;;;;;;11.35;4.05;;;;;;;12.06;67.91;100221.73;1743667;82;20829;-70
2022/09/06 07:06:54;;;;;;;8.10;4.37;;;;;;;12.12;67.00;100228.95;1739592;82;21557;-68
2022/09/06 07:09:25;;;;;;;6.50;4.47;;;;;;;12.15;67.27;100229.70;1725950;82;21061;-69
2022/09/06 07:11:52;;;;;;;8.30;4.10;;;;;;;12.27;66.95;100233.61;1724559;82;21042;-71
2022/09/06 07:14:22;;;;;;;10.32;4.33;;;;;;;12.41;66.90;100233.95;1727259;82;21085;-70
2022/09/06 07:16:53;;;;;;;10.18;4.45;;;;;;;12.54;65.61;100239.58;1740623;82;20986;-70
2022/09/06 07:19:19;;;;;;;8.15;4.78;;;;;;;12.67;65.55;100233.84;1718673;82;21010;-70
2022/09/06 07:21:46;;;;;;;10.23;4.47;;;;;;;12.88;64.92;100240.00;1718367;83;21523;-70
2022/09/06 07:24:13;;;;;;;10.45;4.30;;;;;;;13.05;62.95;100232.34;1719121;83;21092;-71
2022/09/06 07:26:41;;;;;;;8.83;3.58;;;;;;;13.21;61.55;100230.01;1662862;85;21276;-70
2022/09/06 07:29:12;;;;;;;7.45;2.92;;;;;;;13.37;60.94;100228.95;1652457;85;21035;-70
2022/09/06 07:31:42;;;;;;;6.45;3.33;;;;;;;13.51;60.03;100228.38;1664441;85;21047;-71
2022/09/06 07:34:13;;;;;;;5.10;2.22;;;;;;;13.68;59.95;100228.52;1655642;85;21336;-69
2022/09/06 07:36:40;;;;;;;6.47;2.25;;;;;;;13.91;59.43;100223.63;1695962;83;21117;-67
2022/09/06 07:39:09;;;;;;;6.25;2.17;;;;;;;14.12;58.10;100222.70;1672524;85;21031;-67
2022/09/06 07:41:36;;;;;;;4.15;1.80;;;;;;;14.24;57.36;100218.67;1673123;85;21481;-68
2022/09/06 07:44:03;;;;;;;2.77;1.42;;;;;;;14.28;56.39;100225.47;1651876;85;21093;-69
2022/09/06 07:46:33;;;;;;;1.80;1.55;;;;;;;14.18;55.81;100217.66;1676005;85;21043;-71
2022/09/06 07:49:04;;;;;;;4.03;2.00;;;;;;;14.09;56.49;100224.13;1652768;84;21450;-71
2022/09/06 07:51:35;;;;;;;3.22;1.52;;;;;;;13.99;57.07;100214.97;1655016;85;21922;-69
2022/09/06 07:54:06;;;;;;;5.67;1.65;;;;;;;13.99;57.07;100214.97;1652456;85;21340;-69
2022/09/06 07:56:36;;;;;;;2.80;1.60;;;;;;;13.98;56.96;100224.61;1640077;85;21146;-69
2022/09/06 07:59:08;;;;;;;3.10;1.52;;;;;;;13.94;56.79;100217.81;1629741;85;21107;-72
2022/09/06 08:01:39;;;;;;;1.98;1.50;;;;;;;13.85;56.73;100212.11;1654551;85;21029;-69
2022/09/06 08:04:26;;;;;;;;;;;;;;;;;;;;;
2022/09/06 08:06:43;;;;;;;8.40;1.50;;;;;;;13.66;56.98;100215.97;1656529;85;21089;-68
2022/09/06 08:09:10;;;;;;;1.52;1.17;;;;;;;13.62;56.17;100217.00;1628884;86;21185;-72
2022/09/06 08:11:38;;;;;;;3.05;1.37;;;;;;;13.59;55.57;100216.67;1615228;87;21049;-77
2022/09/06 08:14:06;;;;;;;2.67;1.40;;;;;;;13.61;56.78;100212.23;1652824;86;21013;-77
2022/09/06 08:16:36;;;;;;;4.50;1.70;;;;;;;13.65;55.89;100215.12;1650863;86;21104;-78
2022/09/06 08:19:07;;;;;;;1.80;1.35;;;;;;;13.68;55.70;100203.23;1642694;86;20950;-80
2022/09/06 08:21:34;;;;;;;1.20;1.07;;;;;;;13.76;55.19;100206.37;1608835;87;21119;-77
2022/09/06 08:24:06;;;;;;;2.37;1.12;;;;;;;13.84;53.13;100202.56;1612321;87;21568;-77
2022/09/06 08:26:38;;;;;;;2.45;1.20;;;;;;;13.89;51.38;100208.45;1634897;86;21064;-76
2022/09/06 08:29:06;;;;;;;2.65;1.12;;;;;;;13.89;51.48;100201.92;1698469;84;21577;-75
2022/09/06 08:31:34;;;;;;;2.58;1.15;;;;;;;13.89;51.66;100204.53;1695862;83;21073;-78
2022/09/06 08:34:01;;;;;;;2.52;0.80;;;;;;;13.98;52.28;100196.30;1667952;84;21057;-77
2022/09/06 08:36:29;;;;;;;4.87;1.20;;;;;;;14.16;50.50;100188.95;1676146;84;21680;-77
2022/09/06 08:39:02;;;;;;;3.08;1.87;;;;;;;14.37;49.37;100193.22;1714417;82;21038;-78
2022/09/06 08:41:50;;;;;;;6.75;1.35;;;;;;;14.59;48.85;100183.92;1732856;82;22095;-76
2022/09/06 08:44:37;;;;;;;2.25;0.85;;;;;;;14.56;49.16;100175.38;1702278;84;21062;-76
2022/09/06 08:47:12;;;;;;;3.58;1.10;;;;;;;14.56;48.71;100178.00;1734672;82;21069;-77
2022/09/06 08:49:55;;;;;;;1.72;1.40;;;;;;;14.53;49.24;100183.37;1695398;83;21103;-79
2022/09/06 08:52:49;;;;;;;1.90;1.12;;;;;;;14.53;49.24;100183.37;1676602;84;21050;-80
2022/09/06 08:55:44;;;;;;;3.15;1.45;;;;;;;14.52;48.94;100175.13;1673267;84;21098;-74
2022/09/06 08:58:40;;;;;;;5.83;1.17;;;;;;;14.59;48.46;100164.77;1671425;85;21006;-75
2022/09/06 09:01:16;;;;;;;1.65;1.40;;;;;;;14.70;48.20;100168.57;1734675;82;21080;-74
2022/09/06 09:03:44;;;;;;;2.22;1.37;;;;;;;14.81;46.47;100156.27;1731533;82;21091;-74
2022/09/06 09:06:11;;;;;;;3.87;0.95;;;;;;;14.86;44.71;100162.14;1736163;82;21099;-77
2022/09/06 09:09:06;;;;;;;2.92;0.90;;;;;;;14.97;43.59;100147.23;1735534;82;21149;-77
2022/09/06 09:11:34;;;;;;;1.65;0.93;;;;;;;15.13;43.90;100143.78;1733694;82;21043;-74
2022/09/06 09:14:16;;;;;;;8.80;1.35;;;;;;;15.30;41.90;100151.26;1735018;82;20959;-76
2022/09/06 09:16:43;;;;;;;2.62;1.27;;;;;;;15.25;44.25;100148.01;1735857;82;21099;-76
2022/09/06 09:19:10;;;;;;;4.17;1.47;;;;;;;15.10;44.24;100150.94;1733771;82;21040;-78
2022/09/06 09:21:38;;;;;;;1.20;1.10;;;;;;;14.96;43.90;100146.84;1733803;82;21261;-74
2022/09/06 09:24:14;;;;;;;1.40;1.22;;;;;;;14.87;44.77;100142.88;1733789;82;21041;-74
2022/09/06 09:27:03;;;;;;;1.30;0.95;;;;;;;14.82;44.69;100155.34;1733752;82;21064;-74
2022/09/06 09:29:30;;;;;;;2.77;1.20;;;;;;;14.81;42.47;100152.34;1713101;82;21026;-74
2022/09/06 09:31:57;;;;;;;2.55;0.80;;;;;;;14.86;41.71;100146.88;1733944;82;21634;-76
2022/09/06 09:34:34;;;;;;;2.12;0.80;;;;;;;14.93;40.44;100150.45;1734037;82;21098;-76
2022/09/06 09:37:24;;;;;;;2.17;0.70;;;;;;;14.99;40.61;100144.05;1733748;82;20945;-76
2022/09/06 09:39:53;;;;;;;1.00;0.80;;;;;;;15.04;41.40;100147.30;1734064;82;21012;-75
2022/09/06 09:42:30;;;;;;;1.65;0.90;;;;;;;14.95;41.07;100139.91;1733623;82;21528;-74
2022/09/06 09:44:57;;;;;;;0.93;0.75;;;;;;;14.75;40.48;100150.03;1709171;82;20988;-76
2022/09/06 09:47:29;;;;;;;3.27;1.10;;;;;;;14.58;42.31;100155.22;1733827;82;21546;-75
2022/09/06 09:49:56;;;;;;;1.00;0.90;;;;;;;14.50;41.29;100137.70;1733761;82;21023;-76
2022/09/06 09:52:28;;;;;;;1.07;0.80;;;;;;;14.48;41.58;100141.24;1713372;82;21095;-76
2022/09/06 09:55:03;;;;;;;2.15;0.70;;;;;;;14.50;41.62;100144.25;1733389;82;21102;-75
2022/09/06 09:57:33;;;;;;;6.72;0.90;;;;;;;14.53;41.35;100151.50;1733725;82;21123;-74
2022/09/06 10:00:00;;;;;;;4.10;0.80;;;;;;;14.58;41.96;100142.98;1731795;82;21294;-74
2022/09/06 10:02:37;;;;;;;1.32;0.70;;;;;;;14.66;41.66;100140.83;1725444;82;21039;-76
2022/09/06 10:05:15;;;;;;;2.17;0.57;;;;;;;14.78;39.73;100141.58;1700377;83;21091;-73
2022/09/06 10:07:50;;;;;;;1.05;0.70;;;;;;;14.85;39.57;100140.80;1712489;82;21029;-77
2022/09/06 10:10:30;;;;;;;2.15;0.80;;;;;;;14.75;38.60;100144.80;1704496;82;21027;-77
2022/09/06 10:13:28;;;;;;;3.62;1.00;;;;;;;14.75;38.60;100144.80;1698144;83;21249;-75
2022/09/06 10:15:57;;;;;;;1.45;0.53;;;;;;;14.52;41.14;100141.10;1714472;83;21029;-77
2022/09/06 10:18:35;;;;;;;2.72;1.00;;;;;;;14.52;41.14;100141.10;1714601;83;21163;-77
2022/09/06 10:21:14;;;;;;;5.78;1.02;;;;;;;14.51;40.18;100139.41;1712803;82;21625;-76
2022/09/06 10:24:09;;;;;;;1.22;0.70;;;;;;;14.57;40.65;100135.20;1714492;83;20998;-76
2022/09/06 10:26:51;;;;;;;1.12;0.90;;;;;;;14.68;40.38;100127.67;1664745;85;22177;-76
2022/09/06 10:29:26;;;;;;;3.65;1.07;;;;;;;14.67;39.80;100141.68;1681161;84;21017;-76
2022/09/06 10:32:22;;;;;;;1.30;0.85;;;;;;;14.72;39.36;100148.86;1632571;86;21018;-75
2022/09/06 10:35:25;;;;;;;1.10;0.82;;;;;;;14.81;39.81;100141.86;1643234;87;22224;-76
2022/09/06 10:38:10;;;;;;;;;;;;;;;14.95;38.84;100130.73;1668212;85;21521;-77
2022/09/06 10:40:42;;;;;;;2.15;0.60;;;;;;;15.29;37.31;100143.01;1644396;85;21757;-76
2022/09/06 10:43:14;;;;;;;1.70;0.60;;;;;;;15.29;37.31;100143.01;1660382;86;21090;-76
2022/09/06 10:46:03;;;;;;;0.85;0.70;;;;;;;15.36;38.18;100130.84;1704222;83;21042;-77
2022/09/06 10:48:41;;;;;;;1.50;0.85;;;;;;;15.44;37.70;100145.70;1690446;83;21087;-78
2022/09/06 10:51:33;;;;;;;2.17;0.78;;;;;;;15.52;38.32;100134.84;1724696;82;21044;-73
2022/09/06 10:54:10;;;;;;;1.20;0.80;;;;;;;15.60;37.49;100131.37;1673800;83;21559;-75
2022/09/06 10:56:42;;;;;;;1.07;0.70;;;;;;;15.56;37.13;100138.19;1693243;82;21061;-73
2022/09/06 10:59:35;;;;;;;1.57;0.80;;;;;;;15.54;37.09;100127.74;1736847;82;21533;-74
2022/09/06 11:02:38;;;;;;;0.75;0.62;;;;;;;15.61;37.68;100133.53;1732751;82;21070;-72
2022/09/06 11:05:19;;;;;;;5.72;0.65;;;;;;;15.71;38.97;100140.02;1737421;82;21066;-74
2022/09/06 11:07:53;;;;;;;1.45;0.55;;;;;;;15.73;37.59;100135.07;1732195;82;21691;-73
2022/09/06 11:10:28;;;;;;;1.10;0.60;;;;;;;15.75;37.48;100118.80;1700746;83;21041;-74
2022/09/06 11:13:07;;;;;;;3.22;0.70;;;;;;;15.88;37.56;100116.83;1718447;83;21073;-74
2022/09/06 11:15:47;;;;;;;1.25;0.75;;;;;;;16.02;37.37;100124.80;1734712;82;21966;-74
2022/09/06 11:18:31;;;;;;;4.28;0.60;;;;;;;16.02;36.93;100119.55;1732269;82;21035;-75
2022/09/06 11:21:22;;;;;;;3.85;0.60;;;;;;;15.96;36.62;100122.53;1731282;82;21220;-73
2022/09/06 11:24:06;;;;;;;4.47;0.88;;;;;;;15.94;37.50;100116.05;1712987;82;21493;-74
2022/09/06 11:27:07;;;;;;;5.15;1.30;;;;;;;16.06;37.67;100107.51;1721175;82;21026;-73
2022/09/06 11:29:34;;;;;;;0.85;0.62;;;;;;;16.18;37.26;100119.14;1734982;82;21589;-72
2022/09/06 11:32:02;;;;;;;0.57;0.55;;;;;;;16.17;36.72;100123.54;1714470;82;20998;-74
2022/09/06 11:34:33;;;;;;;1.87;0.50;;;;;;;16.06;36.48;100111.44;1734866;82;21617;-73
2022/09/06 11:37:08;;;;;;;1.40;0.90;;;;;;;15.95;36.41;100112.50;1733552;82;20901;-73
2022/09/06 11:39:38;;;;;;;0.72;0.68;;;;;;;15.88;37.12;100116.83;1721383;82;21019;-71
2022/09/06 11:42:09;;;;;;;2.20;0.60;;;;;;;15.83;35.75;100106.57;1743064;82;21016;-73
2022/09/06 11:45:05;;;;;;;1.95;0.80;;;;;;;15.80;36.43;100111.97;1733156;82;21147;-74
2022/09/06 11:47:51;;;;;;;2.83;0.75;;;;;;;15.69;37.69;100109.92;1731822;82;21061;-73
2022/09/06 11:50:26;;;;;;;1.87;0.70;;;;;;;15.49;37.83;100108.77;1671717;84;21091;-73